Ringwood, Oklahoma
Current Conditions -  °F | °C
As of 11:58 PM on Thursday 27 Nov 2014 (Local Time) from KEND Reporting Station
Clear Clear  
Wind Chill: 31°   Ceiling: Unl
Heat Index: 39°   Visibility: 10mi
Dew Point: 25°   Wind: 13mph
Humidity: 58%   Direction: 170°S
Pressure: 30.18"   Gusts: NA
Location:  36.38°N, 98.25°W
Report Text: KEND 280558Z AUTO 17011KT 10SM CLR 04/M04 A3018 RMK AO2 SLP228 T00381037 10068 20025 57023 $
Loading
Personal Weather Stations






























Interactive Weather Map New forecast layout! Learn more

10-Day Weather Forecast

Advertisements
Track Severe Weather on mobile